Time;durP1;ratioP1;P1;durP2;ratioP2;P2;SDS_P1;SDS_P2;PMS_P1;PMS_P2;Temp;Humidity;BMP_temperature;BMP_pressure;BME280_temperature;BME280_humidity;BME280_pressure;Samples;Min_cycle;Max_cycle;Signal;HPM_P1;HPM_P2
2022/03/14 00:02:25;;;;;;;0.10;0.10;;;;;;;4.87;74.31;96709.44;10286677;28;100368;-86
2022/03/14 00:07:34;;;;;;;0.45;0.20;;;;;;;4.72;74.24;96709.53;10281591;28;96874;-86
2022/03/14 00:12:38;;;;;;;0.20;0.17;;;;;;;4.71;74.39;96715.63;10273502;28;97685;-85
2022/03/14 00:17:47;;;;;;;0.40;0.30;;;;;;;4.74;74.01;96718.00;10269912;28;97031;-85
2022/03/14 00:22:52;;;;;;;1.38;0.38;;;;;;;4.74;74.08;96714.59;10282144;28;97048;-85
2022/03/14 00:27:55;;;;;;;0.10;0.10;;;;;;;4.74;73.53;96722.38;10288680;28;98710;-85
2022/03/14 00:33:00;;;;;;;0.17;0.17;;;;;;;4.62;73.77;96725.75;10282768;28;96906;-85
2022/03/14 00:38:02;;;;;;;0.20;0.20;;;;;;;4.60;73.55;96745.72;10281981;28;96957;-85
2022/03/14 00:43:06;;;;;;;0.20;0.20;;;;;;;4.69;73.69;96751.13;10275063;28;96922;-85
2022/03/14 00:48:10;;;;;;;0.40;0.30;;;;;;;4.72;74.10;96750.09;10288813;28;96748;-85
2022/03/14 00:53:13;;;;;;;0.10;0.10;;;;;;;4.60;74.36;96745.72;10287259;28;99993;-85
2022/03/14 00:58:16;;;;;;;0.40;0.30;;;;;;;4.53;74.30;96760.81;10267268;28;98973;-85
2022/03/14 01:03:20;;;;;;;0.45;0.10;;;;;;;4.40;74.96;96760.72;10275663;28;98516;-85
2022/03/14 01:08:23;;;;;;;0.43;0.27;;;;;;;4.30;75.10;96759.66;10281995;28;97287;-85
2022/03/14 01:13:27;;;;;;;0.30;0.25;;;;;;;4.31;74.65;96767.31;10273119;28;97618;-85
2022/03/14 01:18:32;;;;;;;0.20;0.20;;;;;;;4.45;74.75;96774.22;10285735;28;98876;-85
2022/03/14 01:23:34;;;;;;;0.45;0.28;;;;;;;4.58;74.81;96769.94;10280266;28;96782;-85
2022/03/14 01:28:38;;;;;;;0.40;0.30;;;;;;;4.63;74.76;96771.38;10275886;28;97039;-85
2022/03/14 01:33:42;;;;;;;1.17;0.40;;;;;;;4.73;73.85;96769.88;10274059;28;96864;-85
2022/03/14 01:38:45;;;;;;;1.70;0.80;;;;;;;4.74;74.38;96768.94;10274980;28;99634;-85
2022/03/14 01:43:48;;;;;;;1.17;0.60;;;;;;;4.63;74.36;96756.72;10284559;28;96920;-85
2022/03/14 01:48:53;;;;;;;2.45;1.20;;;;;;;4.70;73.76;96759.72;10278611;28;96797;-85
2022/03/14 01:53:55;;;;;;;2.03;1.00;;;;;;;4.57;74.07;96742.38;10268406;28;96903;-85
2022/03/14 01:58:59;;;;;;;2.25;1.00;;;;;;;4.48;74.61;96763.66;10285288;28;96984;-85
2022/03/14 02:04:04;;;;;;;1.30;0.70;;;;;;;4.28;74.41;96761.50;10275404;28;98033;-85
2022/03/14 02:09:07;;;;;;;0.80;0.50;;;;;;;4.22;74.68;96764.50;10226093;28;1402726;-85
2022/03/14 02:14:10;;;;;;;1.20;0.70;;;;;;;4.02;74.74;96756.19;10285620;28;96815;-85
2022/03/14 02:19:15;;;;;;;1.25;0.80;;;;;;;3.93;74.92;96747.25;10286597;28;96963;-85
2022/03/14 02:24:19;;;;;;;1.13;0.80;;;;;;;3.70;75.13;96756.41;10276756;28;97271;-85
2022/03/14 02:29:23;;;;;;;1.20;0.70;;;;;;;3.54;75.70;96777.19;10277527;28;97102;-85
2022/03/14 02:34:26;;;;;;;1.17;0.70;;;;;;;3.39;75.97;96778.91;10284952;28;96932;-85
2022/03/14 02:39:32;;;;;;;1.73;0.57;;;;;;;3.23;76.10;96778.16;10287617;28;96925;-85
2022/03/14 02:44:35;;;;;;;0.80;0.50;;;;;;;2.76;77.51;96773.97;10284066;28;97228;-85
2022/03/14 02:49:38;;;;;;;0.75;0.68;;;;;;;2.69;77.35;96779.44;10276412;28;97973;-85
2022/03/14 02:54:42;;;;;;;0.65;0.40;;;;;;;2.72;77.81;96785.34;10273194;28;99546;-85
2022/03/14 02:59:45;;;;;;;0.60;0.50;;;;;;;2.65;77.36;96790.88;10280582;28;97299;-85
2022/03/14 03:04:50;;;;;;;0.60;0.60;;;;;;;2.48;77.84;96790.97;10272261;28;96973;-85
2022/03/14 03:09:54;;;;;;;0.40;0.40;;;;;;;2.56;77.67;96788.78;10278157;28;100534;-85
2022/03/14 03:14:58;;;;;;;0.70;0.40;;;;;;;2.55;77.57;96797.44;10281853;28;98618;-85
2022/03/14 03:20:01;;;;;;;0.43;0.38;;;;;;;2.51;77.77;96801.09;10287223;28;101144;-85
2022/03/14 03:25:06;;;;;;;0.98;0.60;;;;;;;2.48;78.04;96814.19;10291423;28;96950;-85
2022/03/14 03:30:10;;;;;;;0.43;0.38;;;;;;;2.19;78.43;96819.16;10284774;28;96793;-85
2022/03/14 03:35:13;;;;;;;1.48;0.88;;;;;;;2.29;78.04;96822.06;10290005;28;96964;-85
2022/03/14 03:40:17;;;;;;;0.90;0.90;;;;;;;2.60;77.29;96820.41;10274703;28;96861;-85
2022/03/14 03:45:21;;;;;;;1.83;1.02;;;;;;;2.31;78.29;96828.81;10290353;28;97016;-85
2022/03/14 03:50:23;;;;;;;1.23;1.00;;;;;;;2.30;77.88;96824.56;10274365;28;96961;-85
2022/03/14 03:55:28;;;;;;;1.73;0.98;;;;;;;2.48;77.46;96821.91;10279672;28;96987;-85
2022/03/14 04:00:31;;;;;;;1.58;1.00;;;;;;;2.73;77.00;96831.72;10291407;28;98640;-85
2022/03/14 04:05:39;;;;;;;1.08;0.98;;;;;;;2.66;77.36;96840.72;10275316;28;96849;-85
2022/03/14 04:10:44;;;;;;;0.95;0.80;;;;;;;2.55;77.52;96843.88;10274039;28;97175;-85
2022/03/14 04:15:51;;;;;;;1.07;0.87;;;;;;;2.56;78.04;96842.94;10292627;28;97293;-85
2022/03/14 04:20:55;;;;;;;1.90;0.88;;;;;;;2.69;77.64;96851.69;10278568;28;96770;-85
2022/03/14 04:26:00;;;;;;;1.03;0.80;;;;;;;2.60;78.16;96849.63;10268594;28;97422;-84
2022/03/14 04:31:04;;;;;;;1.13;0.88;;;;;;;2.54;78.76;96852.53;10288679;28;97044;-85
2022/03/14 04:36:07;;;;;;;1.15;0.90;;;;;;;2.69;78.59;96840.53;10283094;28;97127;-85
2022/03/14 04:41:14;;;;;;;0.82;0.80;;;;;;;2.93;77.28;96837.50;10281380;28;97258;-85
2022/03/14 04:46:16;;;;;;;1.08;0.80;;;;;;;2.91;77.58;96847.94;10287789;28;97446;-85
2022/03/14 04:51:20;;;;;;;0.73;0.65;;;;;;;2.85;77.07;96853.44;10267870;28;97140;-85
2022/03/14 04:56:24;;;;;;;0.60;0.60;;;;;;;2.76;77.64;96851.38;10281400;28;97006;-85
2022/03/14 05:01:27;;;;;;;0.82;0.73;;;;;;;2.59;78.25;96866.00;10284000;28;97703;-85
2022/03/14 05:06:32;;;;;;;1.05;0.90;;;;;;;2.72;78.37;96870.50;10284156;28;96974;-85
2022/03/14 05:11:38;;;;;;;1.58;1.10;;;;;;;2.63;77.75;96871.81;10272576;28;97083;-85
2022/03/14 05:16:41;;;;;;;0.95;0.90;;;;;;;2.43;78.89;96875.50;10295258;28;96881;-85
2022/03/14 05:21:44;;;;;;;0.70;0.70;;;;;;;2.56;78.18;96885.97;10272038;28;97438;-85
2022/03/14 05:26:49;;;;;;;1.00;0.90;;;;;;;2.56;78.59;96876.47;10281288;28;98717;-85
2022/03/14 05:31:52;;;;;;;1.00;0.80;;;;;;;2.58;77.75;96879.81;10293009;28;97044;-85
2022/03/14 05:36:54;;;;;;;0.60;0.60;;;;;;;2.59;78.07;96883.22;10272870;28;97082;-85
2022/03/14 05:41:59;;;;;;;1.13;0.90;;;;;;;2.45;78.12;96881.38;10276288;28;97602;-85
2022/03/14 05:47:02;;;;;;;1.07;0.80;;;;;;;2.41;77.93;96892.78;10277695;28;96915;-85
2022/03/14 05:52:06;;;;;;;0.70;0.70;;;;;;;2.27;78.42;96898.69;10278153;28;100574;-85
2022/03/14 05:57:11;;;;;;;1.92;0.93;;;;;;;2.17;78.24;96906.03;10283597;28;97192;-85
2022/03/14 06:02:21;;;;;;;1.17;1.00;;;;;;;2.30;78.76;96919.97;10277776;28;99214;-85
2022/03/14 06:07:28;;;;;;;1.38;1.27;;;;;;;2.27;78.53;96932.19;10280629;28;98133;-85
2022/03/14 06:12:34;;;;;;;1.45;1.35;;;;;;;2.27;78.75;96948.50;10278864;28;97124;-85
2022/03/14 06:17:37;;;;;;;1.55;1.40;;;;;;;2.26;78.16;96951.97;10275194;28;96810;-85
2022/03/14 06:22:42;;;;;;;1.48;1.30;;;;;;;2.24;78.82;96958.13;10268301;28;98457;-85
2022/03/14 06:27:47;;;;;;;2.70;1.50;;;;;;;2.19;78.62;96960.94;10276811;28;97794;-85
2022/03/14 06:32:50;;;;;;;1.65;1.30;;;;;;;2.29;78.70;96967.28;10270534;28;98550;-85
2022/03/14 06:37:53;;;;;;;1.50;1.15;;;;;;;2.32;78.29;96963.72;10270237;28;96979;-85
2022/03/14 06:42:59;;;;;;;1.98;1.50;;;;;;;2.29;78.80;96980.16;10277570;28;99377;-85
2022/03/14 06:48:02;;;;;;;1.58;1.23;;;;;;;2.35;78.01;96985.94;10284083;28;99553;-85
2022/03/14 06:53:05;;;;;;;1.52;1.00;;;;;;;2.27;78.93;96983.75;10278583;28;100070;-85
2022/03/14 06:58:10;;;;;;;1.13;1.00;;;;;;;2.44;79.03;96985.44;10289222;28;96802;-85
2022/03/14 07:03:14;;;;;;;1.90;1.52;;;;;;;2.82;79.00;97000.66;10282496;28;98603;-83
2022/03/14 07:08:17;;;;;;;1.80;1.30;;;;;;;3.14;78.84;97005.88;10289591;28;97058;-85
2022/03/14 07:13:22;;;;;;;1.50;1.02;;;;;;;3.20;78.44;97016.69;10289777;28;98866;-85
2022/03/14 07:18:25;;;;;;;1.30;1.10;;;;;;;3.35;77.94;97020.19;10276033;28;97066;-85
2022/03/14 07:23:29;;;;;;;1.58;1.27;;;;;;;3.49;78.31;97023.78;10280133;28;96932;-85
2022/03/14 07:28:34;;;;;;;2.42;1.25;;;;;;;3.57;78.51;97024.16;10294941;28;98674;-85
2022/03/14 07:33:36;;;;;;;1.20;1.10;;;;;;;3.74;78.63;97021.50;10277095;28;97570;-85
2022/03/14 07:38:40;;;;;;;2.08;1.40;;;;;;;3.90;77.58;97015.44;10291124;28;97500;-85
2022/03/14 07:43:44;;;;;;;1.13;1.00;;;;;;;3.97;77.86;97016.78;10290378;28;97674;-85
2022/03/14 07:48:47;;;;;;;1.63;0.97;;;;;;;4.10;77.19;97017.72;10274957;28;97648;-85
2022/03/14 07:53:50;;;;;;;1.67;1.30;;;;;;;4.22;77.36;97030.88;10279287;28;97815;-85
2022/03/14 07:58:54;;;;;;;1.75;0.70;;;;;;;4.31;77.63;97019.97;10287033;28;98008;-85
2022/03/14 08:03:57;;;;;;;1.38;0.82;;;;;;;4.31;77.47;97030.31;10276085;28;96930;-85
2022/03/14 08:09:00;;;;;;;1.45;0.88;;;;;;;4.34;76.94;97040.50;10281400;28;96921;-85
2022/03/14 08:14:05;;;;;;;1.52;0.90;;;;;;;4.47;77.61;97038.00;10284664;28;97362;-85
2022/03/14 08:19:08;;;;;;;1.80;0.93;;;;;;;4.63;77.10;97050.88;10291025;28;97056;-85
2022/03/14 08:24:11;;;;;;;0.80;0.70;;;;;;;4.89;77.09;97052.75;10274296;28;100323;-85
2022/03/14 08:29:15;;;;;;;1.23;0.88;;;;;;;5.25;76.47;97054.03;10289236;28;97737;-85
2022/03/14 08:34:18;;;;;;;1.10;0.90;;;;;;;5.53;76.37;97062.66;10275605;28;97474;-85
2022/03/14 08:39:21;;;;;;;0.93;0.70;;;;;;;5.82;75.54;97067.78;10290985;28;96861;-85
2022/03/14 08:44:25;;;;;;;1.13;0.70;;;;;;;6.08;75.22;97071.28;10281803;28;96963;-85
2022/03/14 08:49:28;;;;;;;1.00;0.80;;;;;;;6.33;74.76;97073.13;10270954;28;97455;-85
2022/03/14 08:54:31;;;;;;;1.48;0.90;;;;;;;6.55;74.56;97074.28;10259093;28;97058;-85
2022/03/14 08:59:35;;;;;;;1.30;1.10;;;;;;;6.79;74.26;97075.22;10284678;28;96782;-85
2022/03/14 09:04:38;;;;;;;1.83;1.35;;;;;;;7.07;74.20;97081.16;10272265;28;97691;-85
2022/03/14 09:09:41;;;;;;;1.70;1.40;;;;;;;7.36;73.94;97083.53;10274052;28;97133;-86
2022/03/14 09:14:46;;;;;;;1.85;1.40;;;;;;;7.59;74.32;97087.94;10284403;28;98966;-86
2022/03/14 09:19:49;;;;;;;1.48;1.17;;;;;;;7.82;73.39;97089.84;10286705;28;96879;-85
2022/03/14 09:24:55;;;;;;;1.45;1.10;;;;;;;8.00;72.89;97103.34;10288320;28;96888;-86
2022/03/14 09:29:59;;;;;;;3.20;1.50;;;;;;;8.20;72.52;97107.91;10283587;28;97674;-86
2022/03/14 09:35:03;;;;;;;1.90;1.38;;;;;;;8.39;72.39;97104.78;10263945;28;97863;-86
2022/03/14 09:40:09;;;;;;;1.58;1.17;;;;;;;8.63;71.55;97104.75;10258309;28;100208;-86
2022/03/14 09:45:15;;;;;;;1.25;1.02;;;;;;;8.78;71.14;97096.72;10273653;28;96930;-86
2022/03/14 09:50:26;;;;;;;1.10;1.00;;;;;;;8.88;71.46;97097.69;10269214;28;97026;-86
2022/03/14 09:55:34;;;;;;;1.10;1.00;;;;;;;8.91;70.71;97090.47;10260551;28;96823;-86
2022/03/14 10:00:39;;;;;;;1.02;0.90;;;;;;;8.67;70.07;97092.31;10277124;28;96997;-86
2022/03/14 10:05:47;;;;;;;1.13;0.82;;;;;;;8.61;69.74;97082.38;10263939;28;96890;-86
2022/03/14 10:10:50;;;;;;;1.92;1.20;;;;;;;8.71;69.26;97073.75;10264717;28;97844;-86
2022/03/14 10:16:14;;;;;;;1.10;1.00;;;;;;;8.71;69.35;97081.56;10270567;28;97033;-86
2022/03/14 10:21:29;;;;;;;1.77;1.30;;;;;;;8.65;69.05;97074.19;10280164;28;96919;-86
2022/03/14 10:26:33;;;;;;;1.13;0.95;;;;;;;8.64;69.36;97072.56;10289077;28;98742;-86
2022/03/14 10:31:40;;;;;;;1.58;1.20;;;;;;;8.82;69.04;97085.13;10294195;28;96837;-86
2022/03/14 10:36:45;;;;;;;2.25;1.10;;;;;;;8.98;68.79;97077.81;10268105;28;97422;-86
2022/03/14 10:42:03;;;;;;;1.30;1.20;;;;;;;9.05;68.54;97073.78;10271225;28;96969;-86
2022/03/14 10:47:26;;;;;;;1.17;1.08;;;;;;;9.24;68.27;97077.56;10286025;28;96961;-86
2022/03/14 10:52:29;;;;;;;1.25;1.13;;;;;;;9.36;67.85;97079.22;10293898;28;97091;-86
2022/03/14 10:57:32;;;;;;;1.40;1.23;;;;;;;9.44;68.10;97087.31;10290041;28;96977;-86
2022/03/14 11:02:39;;;;;;;1.15;1.00;;;;;;;9.57;67.67;97081.16;10279515;28;97113;-86
2022/03/14 11:07:43;;;;;;;3.17;1.48;;;;;;;9.64;67.37;97084.94;10283609;28;96937;-86
2022/03/14 11:12:46;;;;;;;1.40;1.10;;;;;;;9.64;66.67;97092.75;10295226;28;96914;-86
2022/03/14 11:17:52;;;;;;;1.17;1.08;;;;;;;9.74;67.06;97091.06;10270977;28;97271;-86
2022/03/14 11:23:08;;;;;;;2.28;1.20;;;;;;;9.89;65.93;97086.44;10269118;28;100265;-86
2022/03/14 11:28:15;;;;;;;1.95;1.42;;;;;;;9.99;67.40;97089.13;10285180;28;97841;-86
2022/03/14 11:33:21;;;;;;;2.10;1.45;;;;;;;10.01;67.53;97090.66;10292058;28;96933;-86
2022/03/14 11:38:26;;;;;;;1.52;1.20;;;;;;;10.18;67.39;97078.88;10292158;28;96938;-86
2022/03/14 11:43:29;;;;;;;1.33;1.23;;;;;;;10.28;66.58;97075.50;10291773;28;96955;-86
2022/03/14 11:48:37;;;;;;;1.52;1.20;;;;;;;10.46;65.58;97074.00;10289800;28;96791;-86
2022/03/14 11:53:49;;;;;;;1.63;1.30;;;;;;;10.58;64.87;97066.91;10269453;28;96960;-86
2022/03/14 11:58:56;;;;;;;1.30;1.20;;;;;;;10.65;64.60;97051.56;10290030;28;97060;-86
2022/03/14 12:04:02;;;;;;;1.20;1.00;;;;;;;10.40;63.59;97043.16;10286728;28;98155;-86
2022/03/14 12:09:05;;;;;;;2.03;1.10;;;;;;;10.23;63.44;97037.53;10265580;28;97014;-86
2022/03/14 12:14:34;;;;;;;1.70;1.33;;;;;;;10.20;64.11;97032.56;10277060;28;96986;-86
2022/03/14 12:19:42;;;;;;;1.90;1.30;;;;;;;10.58;63.78;97031.19;10270649;28;97223;-86
2022/03/14 12:24:48;;;;;;;1.25;1.15;;;;;;;10.87;63.12;97019.22;10277288;28;97002;-86
2022/03/14 12:29:52;;;;;;;1.75;1.10;;;;;;;11.04;62.70;97009.94;10282008;28;97624;-86
2022/03/14 12:35:01;;;;;;;2.17;1.30;;;;;;;11.15;62.54;97009.84;10263349;28;97419;-86
2022/03/14 12:40:05;;;;;;;1.73;1.40;;;;;;;11.34;61.73;97007.31;10274468;28;97964;-86
2022/03/14 12:45:16;;;;;;;1.50;1.27;;;;;;;11.50;61.25;97008.59;10283236;28;97829;-86
2022/03/14 12:50:46;;;;;;;1.77;1.13;;;;;;;11.68;60.79;97004.34;10279965;28;96844;-86
2022/03/14 12:55:51;;;;;;;2.08;1.00;;;;;;;11.81;60.84;97000.66;10287702;28;96960;-86
2022/03/14 13:00:56;;;;;;;1.88;1.25;;;;;;;11.91;61.03;96976.13;10284227;28;97335;-86
2022/03/14 13:06:02;;;;;;;1.95;1.25;;;;;;;12.15;60.00;96976.69;10297115;28;100086;-86
2022/03/14 13:11:08;;;;;;;1.50;1.23;;;;;;;12.02;58.79;96969.91;10295856;28;97013;-86
2022/03/14 13:16:16;;;;;;;3.15;1.23;;;;;;;12.09;58.83;96965.78;10295597;28;96887;-86
2022/03/14 13:21:23;;;;;;;1.40;0.90;;;;;;;12.37;58.67;96947.56;10261202;28;96895;-86
2022/03/14 13:26:27;;;;;;;1.92;0.90;;;;;;;12.60;57.85;96952.47;10266411;28;97000;-86
2022/03/14 13:31:35;;;;;;;2.10;1.10;;;;;;;12.76;57.36;96946.59;10273617;28;99337;-86
2022/03/14 13:36:41;;;;;;;1.15;0.90;;;;;;;12.90;57.23;96942.69;10272136;28;97163;-86
2022/03/14 13:41:44;;;;;;;0.93;0.80;;;;;;;13.08;56.25;96950.63;10283907;28;98147;-86
2022/03/14 13:46:48;;;;;;;1.15;0.85;;;;;;;13.09;56.59;96947.84;10275961;28;96943;-86
2022/03/14 13:51:55;;;;;;;1.27;0.90;;;;;;;13.33;56.05;96943.88;10258693;28;96960;-86
2022/03/14 13:57:01;;;;;;;1.83;0.70;;;;;;;13.59;55.65;96950.03;10279991;28;96927;-86
2022/03/14 14:02:06;;;;;;;1.85;0.80;;;;;;;13.93;54.35;96931.00;10272722;28;96929;-86
2022/03/14 14:07:17;;;;;;;0.93;0.60;;;;;;;14.33;53.64;96927.03;10257082;28;97144;-86
2022/03/14 14:12:39;;;;;;;0.80;0.70;;;;;;;14.61;52.75;96918.16;10272160;28;97152;-86
2022/03/14 14:17:44;;;;;;;0.98;0.70;;;;;;;14.71;53.54;96919.72;10283559;28;96997;-86
2022/03/14 14:22:54;;;;;;;;;;;;;;;14.80;53.45;96917.09;10278750;28;97696;-86
2022/03/14 14:28:01;;;;;;;1.25;0.80;;;;;;;14.84;52.54;96921.88;10276225;28;97144;-87
2022/03/14 14:33:05;;;;;;;1.50;0.93;;;;;;;14.88;52.64;96917.94;10286500;28;99641;-87
2022/03/14 14:38:11;;;;;;;1.08;0.85;;;;;;;14.97;52.24;96916.19;10286694;28;96900;-84
2022/03/14 14:43:16;;;;;;;1.70;1.00;;;;;;;14.80;51.00;96907.41;10286622;28;97651;-84
2022/03/14 14:48:20;;;;;;;1.27;0.95;;;;;;;15.01;51.23;96901.75;10269629;28;96806;-84
2022/03/14 14:53:24;;;;;;;1.85;1.20;;;;;;;15.34;50.84;96915.00;10272134;28;96933;-84
2022/03/14 14:58:29;;;;;;;2.60;1.27;;;;;;;15.46;50.16;96913.72;10270590;28;97306;-84
2022/03/14 15:03:32;;;;;;;1.48;1.05;;;;;;;15.52;50.09;96921.94;10290241;28;96889;-84
2022/03/14 15:08:36;;;;;;;1.55;1.35;;;;;;;15.12;49.83;96922.50;10277761;28;97260;-84
2022/03/14 15:13:39;;;;;;;1.55;1.30;;;;;;;15.44;50.23;96917.47;10285856;28;96972;-84
2022/03/14 15:18:42;;;;;;;2.15;1.30;;;;;;;15.83;49.91;96904.56;10273878;28;97211;-84
2022/03/14 15:23:46;;;;;;;1.40;1.27;;;;;;;15.79;49.17;96905.03;10267422;28;98820;-84
2022/03/14 15:28:49;;;;;;;1.63;1.30;;;;;;;15.67;49.94;96899.28;10274513;28;96955;-84
2022/03/14 15:33:52;;;;;;;2.22;1.90;;;;;;;15.20;48.45;96905.06;10276269;28;99927;-84
2022/03/14 15:38:57;;;;;;;2.08;1.77;;;;;;;14.75;49.53;96900.00;10294816;28;96959;-85
2022/03/14 15:44:00;;;;;;;3.97;1.60;;;;;;;14.44;50.01;96904.94;10269733;28;96858;-84
2022/03/14 15:49:02;;;;;;;2.40;1.60;;;;;;;14.48;49.36;96908.88;10260711;28;96944;-84
2022/03/14 15:54:07;;;;;;;1.98;1.63;;;;;;;14.35;49.70;96904.06;10267673;28;98277;-84
2022/03/14 15:59:10;;;;;;;;;;;;;;;14.39;49.90;96903.75;10280062;28;97152;-84
2022/03/14 16:04:13;;;;;;;1.88;1.67;;;;;;;14.58;49.11;96898.25;10288615;28;97822;-84
2022/03/14 16:09:17;;;;;;;2.15;1.40;;;;;;;14.72;51.03;96904.75;10293310;28;96915;-84
2022/03/14 16:14:20;;;;;;;1.95;1.48;;;;;;;14.61;50.29;96911.09;10294212;28;102154;-84
2022/03/14 16:19:23;;;;;;;2.33;1.60;;;;;;;14.45;51.16;96913.63;10278611;28;97889;-84
2022/03/14 16:24:28;;;;;;;2.45;1.65;;;;;;;14.28;52.68;96910.03;10269427;28;96938;-84
2022/03/14 16:29:31;;;;;;;2.30;1.77;;;;;;;14.19;53.68;96911.78;10279777;28;96802;-84
2022/03/14 16:34:42;;;;;;;1.95;1.70;;;;;;;13.90;53.38;96912.91;10274550;28;96885;-84
2022/03/14 16:39:46;;;;;;;3.00;2.40;;;;;;;13.69;52.61;96907.13;10260831;28;97295;-84
2022/03/14 16:44:49;;;;;;;2.23;1.90;;;;;;;13.52;52.74;96907.00;10274958;28;97129;-84
2022/03/14 16:49:52;;;;;;;2.17;1.40;;;;;;;13.41;53.10;96915.06;10263296;28;96955;-84
2022/03/14 16:54:56;;;;;;;2.10;1.42;;;;;;;13.39;53.36;96911.78;10289076;28;96886;-84
2022/03/14 16:59:59;;;;;;;1.30;1.20;;;;;;;13.22;53.69;96916.88;10284562;28;97047;-84
2022/03/14 17:05:02;;;;;;;2.05;1.20;;;;;;;13.06;55.16;96921.91;10271266;28;97830;-83
2022/03/14 17:10:08;;;;;;;1.30;1.00;;;;;;;12.92;56.00;96935.53;10273839;28;98021;-83
2022/03/14 17:15:11;;;;;;;2.63;1.40;;;;;;;12.84;56.09;96929.19;10290801;28;96761;-84
2022/03/14 17:20:14;;;;;;;2.55;1.40;;;;;;;12.75;56.00;96935.28;10280785;28;96747;-84
2022/03/14 17:25:19;;;;;;;2.25;1.70;;;;;;;12.64;56.29;96945.94;10267649;28;96987;-84
2022/03/14 17:30:22;;;;;;;3.22;2.40;;;;;;;12.57;57.30;96947.50;10274546;28;97085;-84
2022/03/14 17:35:25;;;;;;;4.72;3.33;;;;;;;12.49;57.54;96946.41;10274678;28;96967;-84
2022/03/14 17:40:31;;;;;;;4.38;3.40;;;;;;;12.41;57.63;96954.16;10271438;28;98733;-84
2022/03/14 17:45:35;;;;;;;2.45;1.45;;;;;;;12.21;56.92;96952.53;10271124;28;99540;-86
2022/03/14 17:50:38;;;;;;;3.40;2.10;;;;;;;11.95;57.09;96952.28;10278584;28;96830;-86
2022/03/14 17:55:42;;;;;;;7.43;5.68;;;;;;;11.78;57.75;96956.41;10282771;28;102166;-86
2022/03/14 18:00:45;;;;;;;3.37;2.20;;;;;;;11.58;58.51;96972.09;10265574;28;97988;-86
2022/03/14 18:05:50;;;;;;;3.88;1.38;;;;;;;11.30;59.11;96973.69;10267193;28;98738;-86
2022/03/14 18:10:54;;;;;;;2.50;1.30;;;;;;;11.03;59.68;96982.13;10274092;28;97227;-86
2022/03/14 18:15:57;;;;;;;3.50;1.30;;;;;;;10.96;59.75;96977.44;10271670;28;99074;-86
2022/03/14 18:21:00;;;;;;;1.08;0.80;;;;;;;10.51;62.00;96987.38;10268965;28;97713;-86
2022/03/14 18:26:04;;;;;;;1.00;0.90;;;;;;;10.03;63.09;96986.94;10270599;28;97556;-86
2022/03/14 18:31:07;;;;;;;3.70;1.73;;;;;;;9.89;63.37;96996.84;10265858;28;98755;-86
2022/03/14 18:36:10;;;;;;;2.15;1.77;;;;;;;9.85;63.14;97002.34;10263563;28;97716;-86
2022/03/14 18:41:14;;;;;;;3.25;1.88;;;;;;;9.58;63.57;97004.56;10286281;28;97182;-86
2022/03/14 18:46:18;;;;;;;2.78;1.45;;;;;;;9.33;63.79;97001.25;10275820;28;98740;-86
2022/03/14 18:51:21;;;;;;;4.47;1.55;;;;;;;9.24;63.80;97001.97;10274423;28;97461;-86
2022/03/14 18:56:25;;;;;;;2.05;1.27;;;;;;;9.21;63.45;97012.63;10269672;28;98266;-86
2022/03/14 19:01:28;;;;;;;2.97;1.30;;;;;;;9.28;63.56;97019.03;10278067;28;101055;-86
2022/03/14 19:06:32;;;;;;;1.88;1.40;;;;;;;9.22;63.06;97014.31;10271964;28;97441;-86
2022/03/14 19:11:38;;;;;;;2.67;1.13;;;;;;;9.06;63.19;97018.09;10278655;28;98023;-86
2022/03/14 19:16:41;;;;;;;2.97;1.50;;;;;;;9.06;63.10;97025.94;10267108;28;97783;-86
2022/03/14 19:21:47;;;;;;;3.38;2.00;;;;;;;9.22;62.85;97040.38;10283800;28;101424;-86
2022/03/14 19:26:51;;;;;;;3.50;1.70;;;;;;;9.24;62.64;97039.28;10268921;28;97312;-85
2022/03/14 19:31:55;;;;;;;4.87;1.87;;;;;;;9.04;63.04;97040.84;10287956;28;97523;-85
2022/03/14 19:36:58;;;;;;;2.45;1.70;;;;;;;9.04;63.80;97043.47;10284165;28;97093;-87
2022/03/14 19:42:03;;;;;;;10.68;5.25;;;;;;;8.90;64.35;97038.50;10268003;28;96944;-87
2022/03/14 19:47:06;;;;;;;5.80;4.22;;;;;;;9.03;64.22;97049.59;10260779;28;99154;-87
2022/03/14 19:52:10;;;;;;;4.97;3.30;;;;;;;8.76;64.72;97043.91;10288096;28;96994;-85
2022/03/14 19:57:14;;;;;;;6.78;3.95;;;;;;;8.55;66.10;97047.19;10265741;28;97144;-85
2022/03/14 20:02:18;;;;;;;4.73;2.73;;;;;;;8.54;65.90;97048.97;10279998;28;98672;-85
2022/03/14 20:07:22;;;;;;;4.23;3.10;;;;;;;8.41;66.20;97039.56;10289321;28;98049;-85
2022/03/14 20:12:26;;;;;;;6.28;4.10;;;;;;;8.42;66.61;97042.06;10255522;28;97151;-85
2022/03/14 20:17:30;;;;;;;5.33;4.03;;;;;;;8.53;66.07;97049.06;10278165;28;97677;-85
2022/03/14 20:22:32;;;;;;;6.90;3.80;;;;;;;8.62;65.57;97048.41;10289001;28;97117;-85
2022/03/14 20:27:37;;;;;;;7.68;5.85;;;;;;;8.83;65.30;97045.94;10288078;28;97009;-85
2022/03/14 20:32:39;;;;;;;6.27;4.50;;;;;;;8.91;65.76;97055.75;10283959;28;97179;-85
2022/03/14 20:37:42;;;;;;;8.30;5.22;;;;;;;8.88;65.59;97063.81;10281634;28;97177;-86
2022/03/14 20:42:47;;;;;;;9.00;5.85;;;;;;;9.00;66.41;97065.50;10275372;28;98669;-86
2022/03/14 20:47:51;;;;;;;9.03;6.00;;;;;;;8.98;67.28;97093.44;10272151;28;97770;-86
2022/03/14 20:52:54;;;;;;;7.40;5.00;;;;;;;8.91;67.75;97105.28;10269755;28;96902;-86
2022/03/14 20:57:58;;;;;;;7.15;4.85;;;;;;;8.81;67.94;97106.91;10260977;28;100456;-86
2022/03/14 21:03:08;;;;;;;6.53;5.40;;;;;;;8.76;68.06;97104.69;10270085;28;98499;-87
2022/03/14 21:08:13;;;;;;;6.47;4.80;;;;;;;8.71;67.94;97107.63;10280539;28;96906;-86
2022/03/14 21:13:27;;;;;;;8.50;5.38;;;;;;;8.64;67.75;97103.81;10283925;28;98737;-87
2022/03/14 21:18:30;;;;;;;7.55;4.97;;;;;;;8.71;68.28;97110.22;10280445;28;97069;-86
2022/03/14 21:23:33;;;;;;;7.15;4.72;;;;;;;8.71;68.32;97109.41;10293161;28;97312;-86
2022/03/14 21:28:38;;;;;;;6.45;4.68;;;;;;;8.66;68.87;97104.53;10275378;28;96842;-87
2022/03/14 21:33:41;;;;;;;10.63;7.30;;;;;;;8.79;67.94;97114.03;10266171;28;97542;-86
2022/03/14 21:38:45;;;;;;;9.55;6.35;;;;;;;8.68;67.60;97120.84;10260032;28;98868;-87
2022/03/14 21:43:50;;;;;;;11.27;6.93;;;;;;;8.79;67.37;97129.66;10274079;28;101163;-86
2022/03/14 21:48:53;;;;;;;11.27;6.80;;;;;;;8.67;67.80;97124.44;10272009;28;96833;-86
2022/03/14 21:54:00;;;;;;;10.98;6.80;;;;;;;8.62;68.17;97126.53;10273201;28;98580;-86
2022/03/14 21:59:04;;;;;;;12.23;7.65;;;;;;;8.47;68.23;97122.47;10273684;28;101152;-86
2022/03/14 22:04:08;;;;;;;11.50;8.02;;;;;;;8.54;68.26;97126.28;10292566;28;96946;-87
2022/03/14 22:09:11;;;;;;;9.13;6.18;;;;;;;8.48;68.04;97124.09;10285452;28;96921;-87
2022/03/14 22:14:15;;;;;;;8.38;5.63;;;;;;;8.41;68.32;97141.13;10273172;28;98049;-85
2022/03/14 22:19:18;;;;;;;10.10;6.40;;;;;;;8.45;68.50;97142.56;10272419;28;97374;-86
2022/03/14 22:24:21;;;;;;;9.65;6.30;;;;;;;8.60;67.93;97154.44;10283035;28;97678;-86
2022/03/14 22:29:26;;;;;;;8.73;5.80;;;;;;;8.64;68.73;97155.09;10282993;28;97442;-86
2022/03/14 22:34:30;;;;;;;7.00;5.33;;;;;;;8.57;69.61;97165.13;10281167;28;98897;-86
2022/03/14 22:39:33;;;;;;;9.00;6.22;;;;;;;8.55;70.27;97156.56;10288483;28;97113;-86
2022/03/14 22:44:37;;;;;;;8.02;5.43;;;;;;;8.58;70.01;97147.72;10277009;28;96953;-86
2022/03/14 22:49:40;;;;;;;7.77;5.33;;;;;;;8.51;70.53;97145.53;10289614;28;98437;-86
2022/03/14 22:54:45;;;;;;;9.88;5.93;;;;;;;8.26;70.94;97138.69;10292684;28;101317;-86
2022/03/14 22:59:49;;;;;;;7.55;4.90;;;;;;;8.10;71.67;97117.31;10268399;28;98189;-85
2022/03/14 23:10:12;;;;;;;6.05;4.13;;;;;;;7.85;72.30;97090.47;10286656;28;97107;-85
2022/03/14 23:15:18;;;;;;;6.40;4.50;;;;;;;7.93;72.08;97102.94;10284844;28;96956;-86
2022/03/14 23:20:21;;;;;;;5.95;3.45;;;;;;;7.85;72.32;97111.28;10273449;28;97657;-85
2022/03/14 23:25:31;;;;;;;4.45;3.35;;;;;;;7.88;72.64;97111.06;10282473;28;97008;-85
2022/03/14 23:30:35;;;;;;;6.32;4.32;;;;;;;7.83;72.93;97091.53;10279120;28;97604;-86
2022/03/14 23:35:38;;;;;;;5.63;3.63;;;;;;;7.88;72.63;97098.06;10280719;28;97350;-85
2022/03/14 23:40:41;;;;;;;6.47;3.10;;;;;;;7.87;73.31;97095.56;10284149;28;98679;-85
2022/03/14 23:45:46;;;;;;;3.95;2.40;;;;;;;8.06;72.40;97084.66;10278754;28;98438;-85
2022/03/14 23:50:49;;;;;;;3.63;2.40;;;;;;;7.98;73.01;97085.22;10273199;28;96999;-86
2022/03/14 23:55:52;;;;;;;3.72;2.58;;;;;;;7.98;73.32;97091.25;10287214;28;97608;-85
